createdAt,value
2018-05-31T00:00:22.065Z,47.80
2018-05-31T00:05:24.635Z,47.90
2018-05-31T00:10:27.198Z,47.70
2018-05-31T00:15:29.775Z,47.70
2018-05-31T00:20:32.366Z,47.80
2018-05-31T00:25:35.736Z,48.20
2018-05-31T00:30:38.370Z,48.20
2018-05-31T00:35:41.709Z,48.30
2018-05-31T00:40:44.343Z,48.30
2018-05-31T00:45:46.913Z,48.30
2018-05-31T00:50:49.463Z,48.50
2018-05-31T00:56:03.817Z,48.50
2018-05-31T01:01:06.437Z,48.50
2018-05-31T01:06:09.750Z,49.00
2018-05-31T01:11:13.075Z,49.30
2018-05-31T01:16:15.645Z,49.30
2018-05-31T01:21:18.228Z,49.10
2018-05-31T01:26:20.822Z,48.80
2018-05-31T01:31:23.414Z,49.00
2018-05-31T01:36:26.018Z,49.10
2018-05-31T01:46:55.238Z,49.40
2018-05-31T01:51:57.793Z,49.30
2018-05-31T01:57:01.101Z,49.60
2018-05-31T02:02:04.414Z,49.50
2018-05-31T02:07:07.745Z,49.60
2018-05-31T02:12:10.328Z,49.70
2018-05-31T02:17:13.690Z,50.00
2018-05-31T02:22:16.249Z,50.00
2018-05-31T02:27:18.809Z,49.90
2018-05-31T02:32:21.390Z,50.00
2018-05-31T02:42:50.427Z,50.10
2018-05-31T02:53:18.313Z,50.20
2018-05-31T02:58:20.854Z,50.30
2018-05-31T03:03:23.437Z,50.50
2018-05-31T03:08:25.986Z,50.50
2018-05-31T03:13:29.299Z,50.80
2018-05-31T03:18:32.607Z,50.90
2018-05-31T03:23:35.925Z,51.00
2018-05-31T03:28:39.233Z,51.10
2018-05-31T03:33:42.553Z,51.30
2018-05-31T03:38:45.093Z,51.40
2018-05-31T03:43:47.665Z,51.20
2018-05-31T03:48:50.209Z,51.30
2018-05-31T03:53:52.741Z,51.60
2018-05-31T03:58:55.274Z,52.10
2018-05-31T04:03:57.810Z,52.50
2018-05-31T04:09:01.140Z,53.00
2018-05-31T04:14:03.694Z,53.10
2018-05-31T04:19:06.278Z,53.10
2018-05-31T04:24:08.829Z,53.30
2018-05-31T04:29:11.388Z,53.60
2018-05-31T04:34:13.942Z,53.70
2018-05-31T04:39:16.487Z,53.90
2018-05-31T04:44:19.803Z,54.00
2018-05-31T04:49:23.122Z,54.10
2018-05-31T04:54:25.674Z,54.20
2018-05-31T04:59:28.211Z,54.30
2018-05-31T05:04:31.528Z,54.30
2018-05-31T05:09:34.045Z,54.30
2018-05-31T05:14:36.606Z,54.50
2018-05-31T05:19:39.155Z,54.30
2018-05-31T05:24:41.732Z,54.50
2018-05-31T05:29:44.337Z,54.50
2018-05-31T05:34:46.881Z,54.60
2018-05-31T05:39:49.458Z,54.60
2018-05-31T05:44:52.031Z,54.90
2018-05-31T05:49:54.582Z,54.90
2018-05-31T05:54:57.178Z,54.80
2018-05-31T05:59:59.764Z,54.70
2018-05-31T06:05:03.079Z,54.60
2018-05-31T06:10:05.676Z,54.50
2018-05-31T06:15:08.991Z,54.50
2018-05-31T06:20:11.570Z,54.60
2018-05-31T06:25:14.886Z,54.30
2018-05-31T06:30:18.194Z,54.50
2018-05-31T06:35:21.495Z,54.60
2018-05-31T06:40:24.027Z,54.60
2018-05-31T06:45:26.594Z,54.60
2018-05-31T06:50:29.130Z,54.70
2018-05-31T06:55:31.703Z,54.80
2018-05-31T07:00:35.035Z,54.50
2018-05-31T07:05:37.599Z,54.60
2018-05-31T07:10:40.890Z,54.20
2018-05-31T07:15:43.493Z,54.20
2018-05-31T07:20:47.042Z,54.50
2018-05-31T07:25:49.593Z,54.30
2018-05-31T07:30:52.154Z,54.10
2018-05-31T07:35:54.737Z,53.50
2018-05-31T07:40:57.426Z,53.30
2018-05-31T07:45:59.982Z,53.80
2018-05-31T07:51:03.475Z,53.50
2018-05-31T07:56:06.207Z,53.40
2018-05-31T08:01:08.786Z,53.70
2018-05-31T08:06:11.338Z,53.40
2018-05-31T08:11:13.935Z,53.00
2018-05-31T08:16:17.218Z,53.00
2018-05-31T08:21:20.525Z,53.10
2018-05-31T08:26:23.905Z,53.20
2018-05-31T08:31:26.538Z,53.20
2018-05-31T08:36:29.033Z,53.30
2018-05-31T08:41:32.346Z,53.60
2018-05-31T08:46:35.697Z,53.60
2018-05-31T08:51:38.271Z,53.60
2018-05-31T08:56:40.859Z,53.50
2018-05-31T09:01:43.422Z,54.00
2018-05-31T09:06:45.993Z,54.50
2018-05-31T09:11:48.538Z,54.50
2018-05-31T09:16:51.842Z,53.80
2018-05-31T09:21:55.191Z,53.40
2018-05-31T09:26:57.748Z,53.40
2018-05-31T09:32:01.081Z,52.50
2018-05-31T09:37:03.676Z,52.50
2018-05-31T09:42:06.262Z,53.00
2018-05-31T09:47:08.842Z,52.00
2018-05-31T09:52:12.141Z,50.20
2018-05-31T09:57:14.722Z,50.10
2018-05-31T10:02:18.222Z,48.80
2018-05-31T10:07:20.771Z,48.60
2018-05-31T10:12:24.070Z,46.80
2018-05-31T10:17:26.666Z,46.80
2018-05-31T10:22:29.218Z,46.50
2018-05-31T10:27:31.746Z,46.70
2018-05-31T10:32:34.273Z,47.50
2018-05-31T10:37:36.821Z,48.10
2018-05-31T10:42:39.346Z,49.70
2018-05-31T10:47:42.653Z,50.60
2018-05-31T10:52:45.948Z,51.40
2018-05-31T10:57:48.481Z,51.30
2018-05-31T11:02:51.041Z,51.60
2018-05-31T11:07:53.597Z,52.50
2018-05-31T11:12:56.166Z,52.50
2018-05-31T11:17:59.828Z,53.10
2018-05-31T11:23:03.297Z,53.80
2018-05-31T11:28:08.708Z,53.90
2018-05-31T11:33:12.125Z,53.70
2018-05-31T11:38:14.743Z,53.60
2018-05-31T11:43:17.317Z,52.80
2018-05-31T11:48:22.364Z,51.90
2018-05-31T11:53:27.140Z,51.80
2018-05-31T11:58:30.399Z,51.20
2018-05-31T12:03:36.011Z,49.80
2018-05-31T12:08:40.514Z,50.80
2018-05-31T12:13:44.225Z,51.10
2018-05-31T12:18:48.120Z,50.00
2018-05-31T12:23:52.187Z,49.10
2018-05-31T12:28:54.871Z,49.10
2018-05-31T12:33:58.384Z,49.30
2018-05-31T12:39:01.802Z,49.10
2018-05-31T12:44:15.531Z,48.70
2018-05-31T12:49:19.671Z,49.00
2018-05-31T12:54:24.130Z,48.60
2018-05-31T12:59:27.075Z,47.80
2018-05-31T13:04:30.529Z,48.00
2018-05-31T13:09:34.001Z,48.00
2018-05-31T13:14:36.670Z,48.80
2018-05-31T13:19:39.341Z,48.90
2018-05-31T13:24:41.904Z,49.40
2018-05-31T13:29:44.434Z,49.70
2018-05-31T13:34:46.993Z,50.60
2018-05-31T13:39:49.574Z,51.80
2018-05-31T13:44:52.160Z,52.30
2018-05-31T13:49:54.741Z,52.90
2018-05-31T13:54:57.325Z,52.90
2018-05-31T13:59:59.911Z,52.30
2018-05-31T14:05:03.090Z,52.50
2018-05-31T14:10:05.765Z,52.20
2018-05-31T14:15:09.586Z,52.50
2018-05-31T14:20:12.227Z,52.40
2018-05-31T14:25:14.802Z,52.40
2018-05-31T14:30:17.380Z,52.80
2018-05-31T14:35:21.317Z,51.90
2018-05-31T14:40:29.259Z,52.10
2018-05-31T14:45:32.738Z,52.10
2018-05-31T14:50:38.251Z,52.60
2018-05-31T14:55:46.201Z,52.60
2018-05-31T15:00:52.285Z,52.90
2018-05-31T15:05:57.942Z,52.90
2018-05-31T15:11:03.878Z,54.30
2018-05-31T15:16:08.074Z,54.30
2018-05-31T15:21:10.695Z,55.50
2018-05-31T15:26:17.930Z,55.50
2018-05-31T15:31:20.531Z,54.70
2018-05-31T15:36:23.158Z,54.60
2018-05-31T15:41:25.725Z,54.10
2018-05-31T15:46:28.311Z,53.90
2018-05-31T15:51:30.926Z,53.70
2018-05-31T15:56:33.502Z,53.00
2018-05-31T16:01:36.781Z,53.20
2018-05-31T16:06:39.466Z,53.20
2018-05-31T16:11:42.083Z,52.60
2018-05-31T16:16:46.777Z,52.60
2018-05-31T16:21:52.273Z,52.60
2018-05-31T16:26:54.861Z,52.70
2018-05-31T16:31:57.443Z,53.00
2018-05-31T16:37:02.175Z,52.90
2018-05-31T16:47:34.469Z,53.00
2018-05-31T16:52:44.022Z,53.00
2018-05-31T16:57:59.886Z,52.60
2018-05-31T17:03:10.597Z,52.30
2018-05-31T17:08:20.444Z,52.10
2018-05-31T17:13:28.366Z,51.60
2018-05-31T17:23:55.078Z,51.80
2018-05-31T17:29:05.314Z,51.80
2018-05-31T17:34:31.581Z,51.50
2018-05-31T17:39:44.252Z,51.50
2018-05-31T17:44:50.483Z,51.50
2018-05-31T17:49:55.239Z,51.50
2018-05-31T17:54:59.745Z,51.70
2018-05-31T18:00:02.340Z,51.70
2018-05-31T18:05:06.174Z,51.10
2018-05-31T18:10:10.491Z,51.20
2018-05-31T18:15:13.984Z,51.60
2018-05-31T18:20:17.385Z,52.30
2018-05-31T18:25:20.008Z,52.40
2018-05-31T18:30:27.582Z,52.30
2018-05-31T18:35:31.698Z,52.20
2018-05-31T18:40:34.347Z,52.50
2018-05-31T18:45:39.387Z,52.60
2018-05-31T18:50:42.809Z,52.70
2018-05-31T18:55:45.433Z,52.70
2018-05-31T19:00:49.462Z,52.70
2018-05-31T19:05:52.166Z,52.50
2018-05-31T19:10:54.810Z,52.90
2018-05-31T19:15:58.509Z,52.90
2018-05-31T19:21:01.100Z,53.70
2018-05-31T19:26:03.703Z,53.10
2018-05-31T19:31:11.241Z,53.00
2018-05-31T19:36:19.452Z,53.30
2018-05-31T19:41:23.023Z,53.80
2018-05-31T19:46:25.682Z,53.90
2018-05-31T19:51:34.688Z,53.90
2018-05-31T19:56:37.319Z,53.90
2018-05-31T20:01:45.540Z,54.00
2018-05-31T20:06:49.681Z,54.30
2018-05-31T20:11:56.633Z,55.00
2018-05-31T20:17:00.840Z,54.80
2018-05-31T20:22:05.591Z,54.80
2018-05-31T20:27:09.410Z,55.00
2018-05-31T20:32:12.930Z,54.70
2018-05-31T20:37:15.593Z,54.70
2018-05-31T20:42:21.084Z,54.50
2018-05-31T20:47:23.762Z,54.30
2018-05-31T20:52:27.126Z,54.70
2018-05-31T20:57:31.595Z,54.70
2018-05-31T21:02:34.985Z,53.90
2018-05-31T21:07:37.899Z,53.90
2018-05-31T21:12:40.613Z,54.10
2018-05-31T21:17:43.282Z,54.30
2018-05-31T21:22:46.507Z,54.50
2018-05-31T21:27:49.261Z,54.70
2018-05-31T21:32:51.846Z,55.00
2018-05-31T21:37:55.194Z,54.80
2018-05-31T21:42:57.776Z,54.90
2018-05-31T21:48:00.382Z,55.00
2018-05-31T21:53:02.925Z,54.90
2018-05-31T21:58:06.307Z,55.60
2018-05-31T22:03:08.878Z,55.60
2018-05-31T22:08:11.467Z,55.90
2018-05-31T22:13:14.825Z,56.30
2018-05-31T22:18:17.430Z,55.40
2018-05-31T22:23:20.015Z,55.10
2018-05-31T22:28:22.603Z,55.20
2018-05-31T22:33:25.218Z,55.50
2018-05-31T22:38:27.766Z,55.70
2018-05-31T22:43:31.282Z,56.00
2018-05-31T22:48:33.855Z,55.80
2018-05-31T22:59:02.119Z,56.20
2018-05-31T23:04:04.669Z,56.80
2018-05-31T23:09:08.023Z,55.90
2018-05-31T23:14:10.659Z,55.80
2018-05-31T23:19:13.238Z,55.90
2018-05-31T23:24:16.809Z,56.10
2018-05-31T23:29:19.362Z,56.20
2018-05-31T23:34:21.956Z,56.30
2018-05-31T23:39:24.530Z,56.40
2018-05-31T23:44:27.083Z,56.20
2018-05-31T23:49:29.717Z,56.40
2018-05-31T23:54:32.243Z,56.40
2018-05-31T23:59:34.790Z,56.30
